Time;durP1;ratioP1;P1;durP2;ratioP2;P2;SDS_P1;SDS_P2;PMS_P1;PMS_P2;Temp;Humidity;BMP_temperature;BMP_pressure;BME280_temperature;BME280_humidity;BME280_pressure;Samples;Min_cycle;Max_cycle;Signal;HPM_P1;HPM_P2
2023/09/22 00:00:33;;;;;;;;;;;;;;;19.19;67.32;98040.34;232864;215;131067;-58
2023/09/22 00:05:58;;;;;;;5.30;2.70;;;;;;;19.10;67.68;98031.70;232835;215;147580;-60
2023/09/22 00:11:18;;;;;;;6.70;3.10;;;;;;;19.06;67.80;98035.34;231547;224;723598;-60
2023/09/22 00:16:23;;;;;;;6.10;2.50;;;;;;;18.99;67.96;98029.42;233008;215;137302;-60
2023/09/22 00:21:28;;;;;;;4.60;2.20;;;;;;;19.03;67.91;98024.83;232906;215;144685;-60
2023/09/22 00:26:33;;;;;;;3.90;2.60;;;;;;;19.11;68.21;98012.94;232905;215;138787;-61
2023/09/22 00:31:38;;;;;;;3.40;2.50;;;;;;;19.16;68.02;98012.91;232893;215;137288;-61
2023/09/22 00:36:42;;;;;;;6.70;3.00;;;;;;;19.22;67.97;98004.39;232900;215;143675;-58
2023/09/22 00:41:47;;;;;;;5.30;2.90;;;;;;;19.23;67.96;98013.09;232910;215;139533;-59
2023/09/22 00:46:51;;;;;;;5.10;2.50;;;;;;;19.23;68.00;98009.31;233085;215;139065;-59
2023/09/22 00:51:58;;;;;;;9.00;2.60;;;;;;;19.26;68.09;98007.34;232939;215;143762;-60
2023/09/22 00:57:04;;;;;;;6.20;3.10;;;;;;;19.25;68.11;98005.04;232902;216;138694;-56
2023/09/22 01:02:11;;;;;;;5.90;2.70;;;;;;;19.25;68.43;98001.67;232990;216;137411;-58
2023/09/22 01:07:15;;;;;;;5.60;3.00;;;;;;;19.22;68.57;98000.54;232939;216;148920;-56
2023/09/22 01:12:19;;;;;;;4.90;2.60;;;;;;;19.22;68.50;97998.59;232782;216;139868;-60
2023/09/22 01:17:24;;;;;;;8.60;3.20;;;;;;;19.27;68.72;98004.63;232937;216;137402;-60
2023/09/22 01:22:34;;;;;;;6.50;2.50;;;;;;;19.34;68.52;97989.32;232963;216;146896;-59
2023/09/22 01:27:37;;;;;;;8.20;3.00;;;;;;;19.36;68.54;97978.58;232883;216;140496;-59
2023/09/22 01:32:42;;;;;;;;;;;;;;;19.39;68.35;97969.43;232963;216;137608;-59
2023/09/22 01:37:55;;;;;;;11.60;3.60;;;;;;;19.37;68.04;97962.95;234413;216;145778;-59
2023/09/22 01:42:58;;;;;;;10.60;3.10;;;;;;;19.37;67.81;97952.17;234389;216;138757;-59
2023/09/22 01:48:01;;;;;;;6.20;3.10;;;;;;;19.37;67.75;97949.54;234426;216;137394;-58
2023/09/22 01:53:05;;;;;;;7.10;2.80;;;;;;;19.34;67.77;97946.92;234455;216;145494;-60
2023/09/22 01:58:09;;;;;;;6.40;2.50;;;;;;;19.31;67.80;97947.31;234349;216;139182;-59
2023/09/22 02:09:03;;;;;;;4.50;3.10;;;;;;;19.38;68.38;97953.72;231466;224;725276;-56
2023/09/22 02:14:10;;;;;;;4.20;3.00;;;;;;;19.41;68.27;97949.83;232959;215;139408;-59
2023/09/22 02:19:14;;;;;;;6.20;3.10;;;;;;;19.45;68.05;97942.54;232929;215;145704;-61
2023/09/22 02:24:17;;;;;;;6.40;3.20;;;;;;;19.47;67.92;97940.85;232916;215;138926;-59
2023/09/22 02:29:21;;;;;;;7.90;3.00;;;;;;;19.44;67.87;97936.35;233066;215;136746;-60
2023/09/22 02:34:26;;;;;;;5.70;3.00;;;;;;;19.39;67.99;97932.98;232732;213;144080;-60
2023/09/22 02:39:32;;;;;;;4.40;2.90;;;;;;;19.34;68.12;97932.55;232693;213;140366;-61
2023/09/22 02:44:41;;;;;;;6.20;2.80;;;;;;;19.28;68.28;97932.96;232675;213;137389;-58
2023/09/22 02:49:46;;;;;;;5.70;3.00;;;;;;;19.23;68.61;97918.47;232681;214;144693;-57
2023/09/22 02:54:56;;;;;;;6.30;3.10;;;;;;;19.23;68.65;97910.35;232762;214;139523;-59
2023/09/22 02:59:59;;;;;;;5.00;3.20;;;;;;;19.25;68.81;97910.53;232729;214;137157;-58
2023/09/22 03:05:07;;;;;;;;;;;;;;;19.19;68.86;97916.98;232818;215;145807;-57
2023/09/22 03:10:12;;;;;;;6.40;3.30;;;;;;;19.09;69.28;97913.95;232890;214;138769;-58
2023/09/22 03:15:18;;;;;;;6.40;3.30;;;;;;;18.98;69.39;97913.10;232642;214;139084;-57
2023/09/22 03:20:22;;;;;;;6.30;3.40;;;;;;;18.88;69.86;97915.61;232962;215;147177;-59
2023/09/22 03:25:29;;;;;;;5.60;3.20;;;;;;;18.79;70.16;97913.05;232811;215;140644;-58
2023/09/22 03:30:34;;;;;;;5.80;3.30;;;;;;;18.72;70.59;97913.30;232863;215;138152;-58
2023/09/22 03:35:40;;;;;;;6.80;3.70;;;;;;;18.69;70.78;97909.88;232992;215;146701;-60
2023/09/22 03:40:44;;;;;;;7.10;3.50;;;;;;;18.70;70.98;97924.48;232987;215;275189;-60
2023/09/22 03:45:53;;;;;;;7.60;3.80;;;;;;;18.74;71.22;97929.70;232822;215;136654;-60
2023/09/22 03:50:57;;;;;;;9.10;4.10;;;;;;;18.72;71.21;97934.77;232857;215;145491;-61
2023/09/22 03:56:02;;;;;;;8.40;3.80;;;;;;;18.66;71.24;97944.80;232712;215;140638;-61
2023/09/22 04:01:07;;;;;;;8.30;4.30;;;;;;;18.63;71.57;97941.92;232825;215;136570;-62
2023/09/22 04:06:10;;;;;;;4.80;3.30;;;;;;;18.57;71.82;97940.66;232866;215;147226;-60
2023/09/22 04:11:15;;;;;;;6.20;3.70;;;;;;;18.54;72.29;97941.98;232859;215;139199;-58
2023/09/22 04:16:19;;;;;;;9.70;4.10;;;;;;;18.56;72.43;97946.52;232787;215;137725;-62
2023/09/22 04:21:25;;;;;;;6.00;4.10;;;;;;;18.59;72.51;97946.51;232868;215;145541;-60
2023/09/22 04:26:31;;;;;;;12.70;4.60;;;;;;;18.62;72.07;97937.17;232781;215;140291;-62
2023/09/22 04:31:38;;;;;;;8.20;4.20;;;;;;;18.64;71.94;97933.59;232771;215;137628;-62
2023/09/22 04:36:44;;;;;;;9.90;4.50;;;;;;;18.61;71.81;97935.77;232773;215;146651;-61
2023/09/22 04:41:50;;;;;;;;;;;;;;;18.57;72.02;97940.86;233012;215;138835;-64
2023/09/22 04:46:56;;;;;;;313.00;278.60;;;;;;;18.55;72.85;97940.16;233038;215;131098;-66
2023/09/22 04:52:04;;;;;;;13.60;6.50;;;;;;;18.60;73.03;97927.35;232989;215;146507;-62
2023/09/22 04:57:09;;;;;;;30.60;25.90;;;;;;;18.66;73.04;97915.70;232769;215;138779;-64
2023/09/22 05:02:14;;;;;;;;;;;;;;;18.76;72.79;97923.14;232798;215;138365;-70
2023/09/22 05:07:18;;;;;;;10.80;4.80;;;;;;;18.86;72.45;97930.82;232941;215;146371;-68
2023/09/22 05:12:22;;;;;;;9.00;4.70;;;;;;;18.91;72.22;97934.91;232856;215;140570;-64
2023/09/22 05:17:28;;;;;;;13.80;4.60;;;;;;;18.96;72.01;97943.11;233000;215;137235;-61
2023/09/22 05:22:34;;;;;;;15.80;4.70;;;;;;;18.97;72.00;97937.98;232841;215;146136;-63
2023/09/22 05:27:42;;;;;;;11.40;4.20;;;;;;;19.01;72.64;97933.58;232817;215;140290;-64
2023/09/22 05:32:47;;;;;;;10.30;4.70;;;;;;;19.02;72.56;97939.75;232797;215;139710;-61
2023/09/22 05:37:52;;;;;;;13.90;5.40;;;;;;;19.07;72.70;97940.04;232885;215;145861;-62
2023/09/22 05:42:57;;;;;;;21.80;13.50;;;;;;;19.19;72.82;97945.36;232762;215;138830;-64
2023/09/22 05:48:09;;;;;;;19.60;9.90;;;;;;;19.27;73.05;97953.78;232924;215;138987;-60
2023/09/22 05:53:14;;;;;;;16.70;5.80;;;;;;;19.41;73.00;97951.08;232938;215;146531;-64
2023/09/22 05:58:20;;;;;;;50.50;35.10;;;;;;;19.54;72.96;97942.73;232778;215;138648;-61
2023/09/22 06:03:25;;;;;;;38.90;21.90;;;;;;;19.60;72.40;97939.98;232815;215;137787;-64
2023/09/22 06:08:31;;;;;;;21.40;5.80;;;;;;;19.67;72.20;97934.48;232788;215;146211;-66
2023/09/22 06:13:37;;;;;;;22.50;5.50;;;;;;;19.74;72.06;97926.55;232746;215;138831;-64
2023/09/22 06:18:43;;;;;;;14.90;5.40;;;;;;;19.80;71.81;97933.39;232829;215;137973;-70
2023/09/22 06:23:49;;;;;;;26.40;5.80;;;;;;;19.81;71.66;97944.25;233041;215;146495;-65
2023/09/22 06:28:54;;;;;;;27.90;6.20;;;;;;;19.82;71.80;97953.99;232747;215;139590;-62
2023/09/22 06:33:59;;;;;;;35.80;6.40;;;;;;;19.90;71.72;97959.23;232809;215;137442;-62
2023/09/22 06:39:07;;;;;;;23.20;5.40;;;;;;;19.89;71.60;97965.52;232882;215;147992;-61
2023/09/22 06:44:11;;;;;;;28.80;6.70;;;;;;;19.92;72.24;97962.62;232792;215;138844;-62
2023/09/22 06:49:16;;;;;;;36.70;8.60;;;;;;;20.01;72.16;97976.29;232731;215;137945;-61
2023/09/22 06:54:21;;;;;;;164.40;114.20;;;;;;;20.15;72.08;97984.72;232843;215;145424;-62
2023/09/22 06:59:25;;;;;;;67.50;46.20;;;;;;;20.34;71.64;97994.92;232819;215;138926;-63
2023/09/22 07:04:32;;;;;;;25.50;9.80;;;;;;;20.49;70.97;97999.83;232885;215;137573;-63
2023/09/22 07:09:37;;;;;;;23.40;8.90;;;;;;;20.57;70.40;97997.04;232925;215;146307;-62
2023/09/22 07:14:42;;;;;;;23.00;7.90;;;;;;;20.69;70.04;98000.39;232815;215;138731;-60
2023/09/22 07:19:47;;;;;;;15.50;6.10;;;;;;;20.88;69.87;98002.35;232802;215;136729;-60
2023/09/22 07:24:53;;;;;;;;;;;;;;;21.06;69.35;97997.04;232810;215;147471;-62
2023/09/22 07:29:57;;;;;;;11.30;5.50;;;;;;;21.26;69.00;97989.31;232936;215;138797;-62
2023/09/22 09:45:37;;;;;;;8.20;4.00;;;;;;;24.92;57.74;97975.40;231390;224;698701;-59
2023/09/22 09:50:50;;;;;;;7.60;3.90;;;;;;;25.04;56.45;97971.54;232288;220;136507;-63
2023/09/22 09:55:59;;;;;;;8.60;3.40;;;;;;;25.22;55.87;97973.73;232304;219;145508;-62
2023/09/22 10:01:05;;;;;;;7.00;3.10;;;;;;;25.46;55.24;97969.58;232952;215;138889;-60
2023/09/22 10:06:13;;;;;;;9.30;5.60;;;;;;;25.69;53.77;97966.23;232870;215;138586;-61
2023/09/22 10:11:18;;;;;;;11.00;3.00;;;;;;;25.80;51.70;97964.13;232864;215;144508;-61
2023/09/22 10:16:30;;;;;;;7.50;2.40;;;;;;;25.93;51.00;97965.52;232916;216;138739;-61
2023/09/22 10:21:45;;;;;;;5.20;1.70;;;;;;;26.13;50.96;97964.23;232863;215;137586;-62
2023/09/22 10:26:56;;;;;;;5.80;2.60;;;;;;;26.27;49.66;97962.89;232903;216;143922;-62
2023/09/22 10:32:17;;;;;;;7.50;2.00;;;;;;;26.41;49.93;97958.17;232963;216;138980;-60
2023/09/22 10:37:27;;;;;;;5.80;2.10;;;;;;;26.51;49.24;97958.42;232979;215;137410;-60
2023/09/22 10:42:31;;;;;;;7.70;2.10;;;;;;;26.55;49.25;97959.86;232944;215;147140;-61
2023/09/22 10:47:46;;;;;;;5.90;2.20;;;;;;;26.59;48.30;97964.31;232862;216;139847;-58
2023/09/22 10:52:51;;;;;;;6.70;3.40;;;;;;;26.67;48.21;97969.15;232879;216;137442;-60
2023/09/22 10:57:58;;;;;;;5.90;2.60;;;;;;;26.71;47.94;97967.23;232926;216;146314;-62
2023/09/22 11:03:14;;;;;;;6.30;2.00;;;;;;;26.80;47.87;97971.63;232866;215;140452;-59
2023/09/22 11:08:20;;;;;;;3.90;1.90;;;;;;;26.90;47.46;97963.25;232922;216;137171;-60
2023/09/22 11:13:25;;;;;;;;;;;;;;;27.00;47.34;97958.73;233005;216;146630;-61
2023/09/22 11:18:35;;;;;;;7.10;2.00;;;;;;;27.05;47.06;97958.29;233029;216;138799;-64
2023/09/22 11:23:40;;;;;;;48.60;43.10;;;;;;;27.06;46.65;97964.63;232933;216;136876;-63
2023/09/22 11:28:46;;;;;;;7.60;3.70;;;;;;;27.21;46.67;97966.50;232954;216;147456;-61
2023/09/22 11:34:01;;;;;;;;;;;;;;;27.44;46.01;97967.39;232969;216;138901;-63
2023/09/22 11:39:06;;;;;;;5.90;2.20;;;;;;;27.51;45.49;97971.02;233042;216;131096;-61
2023/09/22 11:44:13;;;;;;;6.50;2.40;;;;;;;27.57;45.81;97960.70;232944;217;145638;-64
2023/09/22 11:49:18;;;;;;;5.90;1.90;;;;;;;27.62;45.91;97957.95;233075;216;139592;-65
2023/09/22 11:54:26;;;;;;;4.40;1.90;;;;;;;27.46;45.45;97959.47;232980;216;137020;-65
2023/09/22 11:59:33;;;;;;;5.90;1.80;;;;;;;27.41;45.70;97970.52;232878;216;145651;-64
2023/09/22 12:04:38;;;;;;;3.50;1.60;;;;;;;27.47;44.48;97974.30;232935;216;138769;-62
2023/09/22 12:09:43;;;;;;;3.60;1.50;;;;;;;27.48;44.46;97977.73;232941;216;136966;-63
2023/09/22 12:14:47;;;;;;;5.80;1.50;;;;;;;27.37;43.75;97982.49;232997;216;145567;-63
2023/09/22 12:19:53;;;;;;;5.20;1.80;;;;;;;27.28;44.15;97973.73;232814;216;140165;-64
2023/09/22 12:24:57;;;;;;;4.10;1.20;;;;;;;27.21;44.39;97981.42;232878;208;136865;-68
2023/09/22 12:30:06;;;;;;;11.50;6.70;;;;;;;26.97;44.69;97991.53;232875;215;148755;-65
2023/09/22 12:35:10;;;;;;;6.80;2.90;;;;;;;26.64;45.19;97998.20;232858;215;138689;-63
2023/09/22 12:40:15;;;;;;;3.70;2.10;;;;;;;26.36;45.92;98002.77;232845;215;136578;-61
2023/09/22 12:45:22;;;;;;;7.60;2.30;;;;;;;26.22;46.19;98003.66;232920;215;145343;-61
2023/09/22 12:50:27;;;;;;;5.80;2.00;;;;;;;26.12;46.38;98018.71;232868;215;139817;-64
2023/09/22 12:55:36;;;;;;;7.70;1.90;;;;;;;26.07;46.93;98022.90;232986;215;137286;-64
2023/09/22 13:00:43;;;;;;;7.00;1.70;;;;;;;25.99;46.88;98021.02;232919;215;145389;-61
2023/09/22 13:05:47;;;;;;;3.90;1.70;;;;;;;25.94;46.99;98011.52;232921;215;138958;-59
2023/09/22 13:10:50;;;;;;;4.60;1.30;;;;;;;25.92;46.97;98012.08;232840;215;137236;-60
2023/09/22 13:15:55;;;;;;;5.80;1.80;;;;;;;25.90;46.69;98009.59;232861;215;146295;-60
2023/09/22 13:21:01;;;;;;;4.60;1.60;;;;;;;26.04;47.18;98005.34;232797;215;139528;-61
2023/09/22 13:26:07;;;;;;;3.40;1.60;;;;;;;26.17;47.06;98010.41;232749;215;137080;-60
2023/09/22 13:31:10;;;;;;;3.40;1.80;;;;;;;26.38;46.85;98010.52;233004;215;145818;-61
2023/09/22 13:36:16;;;;;;;5.40;1.70;;;;;;;26.66;45.97;98005.02;232832;215;139057;-61
2023/09/22 13:41:22;;;;;;;7.00;2.10;;;;;;;26.98;45.75;98006.10;232886;215;138380;-61
2023/09/22 13:46:27;;;;;;;3.30;1.60;;;;;;;27.16;44.52;98014.77;232893;215;146835;-64
2023/09/22 13:51:33;;;;;;;4.70;1.70;;;;;;;27.03;44.36;98018.40;232857;215;140203;-60
2023/09/22 13:56:39;;;;;;;7.90;1.90;;;;;;;26.81;44.80;98021.61;232757;215;136687;-60
2023/09/22 14:01:44;;;;;;;22.30;18.50;;;;;;;26.66;45.42;98023.38;232978;215;146163;-60
2023/09/22 14:06:49;;;;;;;6.30;2.00;;;;;;;26.59;45.45;98025.88;232842;215;140074;-62
2023/09/22 14:11:53;;;;;;;4.30;1.90;;;;;;;26.50;45.68;98022.03;232879;215;137992;-58
2023/09/22 14:16:59;;;;;;;4.60;1.80;;;;;;;26.43;46.10;98022.15;232818;215;145409;-60
2023/09/22 14:22:04;;;;;;;3.90;2.00;;;;;;;26.35;46.23;98020.95;232831;215;138971;-58
2023/09/22 14:27:08;;;;;;;5.80;1.90;;;;;;;26.27;46.23;98018.79;232896;216;139797;-60
2023/09/22 14:32:11;;;;;;;12.90;6.90;;;;;;;26.23;46.55;98023.85;232805;215;146227;-61
2023/09/22 14:37:17;;;;;;;5.90;2.60;;;;;;;26.18;46.48;98021.73;232932;215;138701;-59
2023/09/22 14:42:21;;;;;;;4.10;2.10;;;;;;;26.07;46.53;98030.26;232754;215;136972;-61
2023/09/22 14:47:28;;;;;;;4.40;1.90;;;;;;;25.95;46.73;98027.75;232903;215;146320;-62
2023/09/22 14:52:35;;;;;;;4.60;1.90;;;;;;;25.87;47.16;98021.39;232796;215;138598;-61
2023/09/22 14:57:40;;;;;;;5.10;1.90;;;;;;;25.86;47.55;98019.46;232849;215;138494;-63
2023/09/22 15:02:46;;;;;;;3.90;1.80;;;;;;;25.86;47.90;98021.77;232723;215;148193;-59
2023/09/22 15:07:50;;;;;;;;;;;;;;;25.84;47.98;98023.33;233031;215;138892;-61
2023/09/22 17:25:31;;;;;;;10.50;3.60;;;;;;;24.84;50.95;98100.27;231407;223;698246;-61
2023/09/22 17:30:36;;;;;;;9.50;3.60;;;;;;;24.79;51.00;98104.83;232832;216;137022;-61
2023/09/22 17:35:40;;;;;;;8.70;3.80;;;;;;;24.79;50.85;98101.60;232923;216;146310;-58
2023/09/22 17:40:48;;;;;;;13.10;4.30;;;;;;;24.76;51.22;98099.77;232890;216;138972;-60
2023/09/22 17:46:00;;;;;;;9.60;4.40;;;;;;;24.72;51.96;98110.10;233009;216;136672;-65
2023/09/22 17:51:09;;;;;;;10.70;5.00;;;;;;;24.62;52.49;98117.30;233001;216;143677;-61
2023/09/22 17:56:14;;;;;;;10.00;5.50;;;;;;;24.51;53.41;98120.58;233051;216;139518;-58
2023/09/22 18:01:20;;;;;;;12.20;4.90;;;;;;;24.43;53.64;98119.70;232887;216;136781;-65
2023/09/22 18:06:25;;;;;;;10.90;5.40;;;;;;;24.35;54.43;98113.70;232918;216;143899;-63
2023/09/22 18:11:29;;;;;;;15.40;6.50;;;;;;;24.23;54.92;98104.95;232911;216;141392;-63
2023/09/22 18:16:35;;;;;;;15.40;5.80;;;;;;;24.10;55.47;98100.02;232893;215;136910;-62
2023/09/22 18:21:41;;;;;;;14.10;7.00;;;;;;;24.00;56.25;98104.88;232946;215;146645;-61
2023/09/22 18:26:45;;;;;;;17.50;6.90;;;;;;;23.94;56.61;98110.27;232979;215;141480;-61
2023/09/22 18:31:48;;;;;;;14.00;6.60;;;;;;;23.92;57.09;98115.88;232975;215;136854;-62
2023/09/22 19:10:10;;;;;;;19.30;9.70;;;;;;;23.54;59.30;98108.73;231244;225;724271;-59
2023/09/22 19:15:14;;;;;;;24.30;10.00;;;;;;;23.49;59.75;98117.81;232903;217;137715;-62
2023/09/22 19:20:19;;;;;;;23.40;10.30;;;;;;;23.45;60.01;98120.76;232853;216;144990;-64
2023/09/22 19:25:29;;;;;;;21.70;10.30;;;;;;;23.39;60.39;98121.06;232926;216;139101;-61
2023/09/22 19:30:38;;;;;;;21.00;7.70;;;;;;;23.30;60.98;98116.45;232948;216;136769;-60
2023/09/22 19:35:46;;;;;;;18.90;8.50;;;;;;;23.29;61.69;98125.80;232922;217;145393;-59
2023/09/22 19:40:49;;;;;;;18.30;8.60;;;;;;;23.29;61.72;98126.80;232806;216;138996;-61
2023/09/22 19:45:53;;;;;;;16.50;8.60;;;;;;;23.30;61.98;98135.46;232882;216;138290;-61
2023/09/22 19:51:03;;;;;;;15.00;8.10;;;;;;;23.29;61.81;98135.11;232963;216;145809;-60
2023/09/22 19:56:09;;;;;;;18.50;9.10;;;;;;;23.22;62.14;98134.86;232793;215;139928;-62
2023/09/22 20:01:13;;;;;;;16.00;8.50;;;;;;;23.17;62.29;98129.14;232863;215;136493;-60
2023/09/22 20:06:18;;;;;;;20.10;8.90;;;;;;;23.11;62.50;98117.20;232770;215;146748;-60
2023/09/22 20:11:24;;;;;;;17.70;8.20;;;;;;;23.03;62.60;98116.59;232792;215;140994;-61
2023/09/22 20:16:33;;;;;;;15.60;8.60;;;;;;;23.02;62.97;98118.38;232826;215;137866;-61
2023/09/22 20:21:39;;;;;;;20.10;8.30;;;;;;;22.95;63.05;98118.83;233006;215;145752;-59
2023/09/22 20:26:44;;;;;;;16.40;8.30;;;;;;;22.97;63.33;98116.88;232878;215;139025;-61
2023/09/22 20:31:48;;;;;;;19.80;8.60;;;;;;;22.89;63.00;98115.63;232964;215;138024;-63
2023/09/22 20:36:52;;;;;;;19.30;8.20;;;;;;;22.76;63.42;98114.95;232884;215;145866;-60
2023/09/22 20:41:57;;;;;;;15.20;8.10;;;;;;;22.72;63.93;98109.84;232776;215;138828;-61
2023/09/22 20:47:05;;;;;;;19.60;7.60;;;;;;;22.71;64.20;98105.23;232909;215;138723;-54
2023/09/22 20:52:13;;;;;;;18.10;8.50;;;;;;;22.76;64.22;98109.08;232755;215;145802;-58
2023/09/22 20:57:16;;;;;;;17.80;9.00;;;;;;;22.75;64.14;98113.04;232952;215;139344;-62
2023/09/22 21:02:21;;;;;;;20.50;9.20;;;;;;;22.72;64.31;98112.88;232935;215;136739;-64
2023/09/22 22:09:35;;;;;;;20.90;7.90;;;;;;;22.02;66.73;98128.73;231867;221;723504;-59
2023/09/22 22:14:40;;;;;;;15.40;7.80;;;;;;;21.92;66.91;98134.24;232303;220;137052;-58
2023/09/22 22:19:45;;;;;;;17.80;7.90;;;;;;;21.86;67.17;98138.71;232471;217;144551;-60
2023/09/22 22:24:49;;;;;;;14.90;7.10;;;;;;;21.83;67.50;98129.80;232862;217;138968;-62
2023/09/22 22:29:55;;;;;;;15.70;7.70;;;;;;;21.87;67.41;98125.55;232837;217;137760;-59
2023/09/22 22:35:01;;;;;;;16.90;7.40;;;;;;;21.90;67.44;98120.98;232902;216;143777;-59
2023/09/22 22:40:13;;;;;;;14.50;7.90;;;;;;;21.88;67.53;98121.07;232720;214;138883;-60
2023/09/22 22:45:18;;;;;;;13.90;7.50;;;;;;;21.85;67.63;98124.02;232727;214;137416;-63
2023/09/22 22:50:22;;;;;;;13.90;7.20;;;;;;;21.79;67.83;98127.02;232781;214;145139;-61
2023/09/22 22:55:28;;;;;;;15.40;7.50;;;;;;;21.75;68.08;98131.84;232779;214;138821;-63
2023/09/22 23:00:35;;;;;;;15.90;6.80;;;;;;;21.80;67.72;98142.85;232690;214;136574;-62
2023/09/22 23:05:41;;;;;;;19.00;6.70;;;;;;;21.82;67.90;98147.27;232700;215;147535;-59
2023/09/22 23:10:44;;;;;;;12.20;6.20;;;;;;;21.86;67.88;98149.34;232707;214;138629;-62
2023/09/22 23:16:11;;;;;;;14.40;7.00;;;;;;;21.94;67.37;98149.20;232871;214;138780;-63
2023/09/22 23:21:16;;;;;;;16.00;6.40;;;;;;;21.97;67.02;98149.73;232703;215;145763;-61
2023/09/22 23:26:22;;;;;;;11.80;5.90;;;;;;;22.00;66.60;98156.63;232865;215;141218;-62
2023/09/22 23:31:26;;;;;;;10.70;5.60;;;;;;;22.04;65.77;98153.61;232813;215;136792;-60
2023/09/22 23:36:33;;;;;;;13.80;5.40;;;;;;;22.09;65.09;98159.67;232829;215;147098;-61
2023/09/22 23:41:38;;;;;;;10.70;4.30;;;;;;;22.16;64.09;98161.15;232724;215;139851;-60
2023/09/22 23:46:44;;;;;;;10.00;3.90;;;;;;;22.25;63.37;98166.16;232771;215;137106;-57
2023/09/22 23:51:50;;;;;;;8.50;4.10;;;;;;;22.35;62.71;98174.02;232916;215;145835;-60
2023/09/22 23:56:54;;;;;;;13.20;4.10;;;;;;;22.41;62.47;98179.92;232806;215;138967;-61
